createdAt,value
2022-08-12T00:02:44.279Z,100298.88
2022-08-12T00:05:31.355Z,100296.88
2022-08-12T00:08:16.775Z,100303.59
2022-08-12T00:11:12.229Z,100309.44
2022-08-12T00:13:57.913Z,100309.13
2022-08-12T00:16:46.651Z,100304.41
2022-08-12T00:19:32.278Z,100295.81
2022-08-12T00:22:18.959Z,100303.38
2022-08-12T00:25:05.181Z,100293.94
2022-08-12T00:27:51.509Z,100298.97
2022-08-12T00:30:36.710Z,100299.47
2022-08-12T00:33:22.139Z,100302.81
2022-08-12T00:36:17.804Z,100303.56
2022-08-12T00:39:17.154Z,100299.53
2022-08-12T00:42:03.039Z,100298.34
2022-08-12T00:44:29.873Z,100295.28
2022-08-12T00:47:01.742Z,100299.66
2022-08-12T00:49:30.565Z,100298.94
2022-08-12T00:52:12.114Z,100295.75
2022-08-12T00:54:44.441Z,100291.03
2022-08-12T00:57:10.966Z,100286.63
2022-08-12T00:59:43.828Z,100287.28
2022-08-12T01:02:14.648Z,100287.44
2022-08-12T01:05:02.371Z,100288.63
2022-08-12T01:07:48.157Z,100282.72
2022-08-12T01:10:33.445Z,100295.63
2022-08-12T01:13:07.261Z,100290.59
2022-08-12T01:15:47.070Z,100291.91
2022-08-12T01:18:14.523Z,100291.34
2022-08-12T01:21:04.031Z,100294.81
2022-08-12T01:23:57.152Z,100298.50
2022-08-12T01:26:25.490Z,100293.84
2022-08-12T01:28:58.616Z,100291.75
2022-08-12T01:31:27.232Z,100300.84
2022-08-12T01:34:04.552Z,100294.53
2022-08-12T01:36:44.432Z,100291.66
2022-08-12T01:39:11.102Z,100297.03
2022-08-12T01:41:53.556Z,100296.09
2022-08-12T01:44:22.519Z,100290.72
2022-08-12T01:47:04.240Z,100291.22
2022-08-12T01:50:08.239Z,100292.81
2022-08-12T01:52:59.935Z,100286.78
2022-08-12T01:55:35.264Z,100285.25
2022-08-12T01:58:18.744Z,100285.84
2022-08-12T02:00:58.657Z,100288.03
2022-08-12T02:03:55.045Z,100288.63
2022-08-12T02:06:58.900Z,100288.94
2022-08-12T02:10:11.442Z,100294.63
2022-08-12T02:13:10.011Z,100290.41
2022-08-12T02:15:51.237Z,100284.50
2022-08-12T02:18:34.212Z,100290.13
2022-08-12T02:21:05.754Z,100292.13
2022-08-12T02:23:34.769Z,100287.91
2022-08-12T02:26:09.348Z,100288.38
2022-08-12T02:28:38.325Z,100292.03
2022-08-12T02:31:06.648Z,100292.22
2022-08-12T02:33:34.280Z,100289.69
2022-08-12T02:36:02.553Z,100289.81
2022-08-12T02:38:31.312Z,100293.50
2022-08-12T02:41:01.314Z,100288.28
2022-08-12T02:43:37.934Z,100293.94
2022-08-12T02:46:14.039Z,100297.63
2022-08-12T02:48:51.491Z,100295.25
2022-08-12T02:51:23.354Z,100288.88
2022-08-12T02:54:04.480Z,100290.03
2022-08-12T02:56:41.040Z,100293.56
2022-08-12T02:59:16.508Z,100291.88
2022-08-12T03:01:50.832Z,100291.31
2022-08-12T03:04:26.900Z,100286.97
2022-08-12T03:07:11.067Z,100283.59
2022-08-12T03:09:59.340Z,100278.53
2022-08-12T03:12:36.457Z,100280.69
2022-08-12T03:15:18.030Z,100276.75
2022-08-12T03:18:25.893Z,100273.84
2022-08-12T03:20:43.238Z,100278.34
2022-08-12T03:23:17.553Z,100271.75
2022-08-12T03:26:00.752Z,100280.09
2022-08-12T03:28:49.696Z,100271.34
2022-08-12T03:31:19.654Z,100278.00
2022-08-12T03:34:02.003Z,100273.78
2022-08-12T03:36:35.197Z,100279.56
2022-08-12T03:39:17.611Z,100281.72
2022-08-12T03:41:58.013Z,100274.25
2022-08-12T03:44:57.776Z,100273.53
2022-08-12T03:47:58.415Z,100282.72
2022-08-12T03:50:44.224Z,100280.75
2022-08-12T03:53:30.725Z,100281.91
2022-08-12T03:56:16.025Z,100279.50
2022-08-12T03:59:01.563Z,100281.59
2022-08-12T04:01:28.231Z,100282.91
2022-08-12T04:03:55.368Z,100281.53
2022-08-12T04:06:34.743Z,100280.81
2022-08-12T04:09:16.093Z,100275.44
2022-08-12T04:12:03.697Z,100279.81
2022-08-12T04:14:31.570Z,100280.38
2022-08-12T04:16:58.519Z,100279.38
2022-08-12T04:19:26.494Z,100282.06
2022-08-12T04:22:02.311Z,100277.38
2022-08-12T04:24:37.966Z,100284.59
2022-08-12T04:27:08.862Z,100282.75
2022-08-12T04:30:21.194Z,100280.91
2022-08-12T04:32:24.981Z,100282.59
2022-08-12T04:34:51.844Z,100279.09
2022-08-12T04:37:18.990Z,100281.91
2022-08-12T04:39:49.032Z,100280.25
2022-08-12T04:42:16.317Z,100284.47
2022-08-12T04:44:43.403Z,100287.13
2022-08-12T04:47:14.315Z,100276.69
2022-08-12T04:49:43.254Z,100274.88
2022-08-12T04:52:10.269Z,100274.03
2022-08-12T04:54:37.788Z,100276.69
2022-08-12T04:57:05.778Z,100269.53
2022-08-12T04:59:47.750Z,100276.56
2022-08-12T05:02:20.885Z,100273.03
2022-08-12T05:04:51.857Z,100276.41
2022-08-12T05:07:19.599Z,100267.53
2022-08-12T05:10:00.441Z,100270.22
2022-08-12T05:12:34.208Z,100265.72
2022-08-12T05:15:00.820Z,100270.06
2022-08-12T05:17:28.241Z,100272.75
2022-08-12T05:19:57.458Z,100271.88
2022-08-12T05:22:26.290Z,100276.25
2022-08-12T05:24:53.179Z,100272.59
2022-08-12T05:27:19.803Z,100274.28
2022-08-12T05:30:08.355Z,100274.97
2022-08-12T05:32:36.759Z,100278.22
2022-08-12T05:35:06.642Z,100282.44
2022-08-12T05:37:34.861Z,100279.59
2022-08-12T05:40:08.350Z,100276.78
2022-08-12T05:42:46.688Z,100282.81
2022-08-12T05:45:13.526Z,100283.56
2022-08-12T05:47:53.670Z,100283.41
2022-08-12T05:50:20.911Z,100286.50
2022-08-12T05:52:50.419Z,100291.84
2022-08-12T05:55:20.494Z,100284.34
2022-08-12T05:57:55.423Z,100282.94
2022-08-12T06:00:26.841Z,100284.31
2022-08-12T06:03:09.032Z,100285.13
2022-08-12T06:05:54.849Z,100283.84
2022-08-12T06:08:24.032Z,100287.91
2022-08-12T06:10:50.823Z,100282.94
2022-08-12T06:13:28.241Z,100283.38
2022-08-12T06:16:13.194Z,100288.97
2022-08-12T06:18:49.410Z,100290.19
2022-08-12T06:21:18.912Z,100291.28
2022-08-12T06:23:56.466Z,100293.38
2022-08-12T06:26:23.155Z,100289.06
2022-08-12T06:29:00.734Z,100292.81
2022-08-12T06:31:27.918Z,100288.56
2022-08-12T06:34:52.732Z,100292.31
2022-08-12T06:36:49.653Z,100290.84
2022-08-12T06:39:25.174Z,100281.88
2022-08-12T06:42:32.185Z,100288.16
2022-08-12T06:44:56.637Z,100287.06
2022-08-12T06:47:23.158Z,100285.13
2022-08-12T06:49:50.249Z,100286.03
2022-08-12T06:52:17.360Z,100280.69
2022-08-12T06:54:47.163Z,100286.84
2022-08-12T06:58:06.025Z,100290.09
2022-08-12T07:00:11.491Z,100280.91
2022-08-12T07:02:38.192Z,100282.97
2022-08-12T07:05:05.216Z,100287.41
2022-08-12T07:07:31.755Z,100293.34
2022-08-12T07:10:06.909Z,100288.69
2022-08-12T07:12:34.605Z,100293.59
2022-08-12T07:15:02.063Z,100292.63
2022-08-12T07:17:37.844Z,100293.13
2022-08-12T07:20:50.814Z,100298.53
2022-08-12T07:23:06.694Z,100303.41
2022-08-12T07:25:41.058Z,100300.06
2022-08-12T07:28:16.720Z,100296.53
2022-08-12T07:30:45.631Z,100298.06
2022-08-12T07:33:13.094Z,100306.16
2022-08-12T07:35:45.516Z,100302.59
2022-08-12T07:38:34.539Z,100302.97
2022-08-12T07:41:15.516Z,100311.34
2022-08-12T07:43:54.787Z,100309.47
2022-08-12T07:46:25.889Z,100318.03
2022-08-12T07:48:55.092Z,100303.72
2022-08-12T07:51:33.997Z,100305.41
2022-08-12T07:54:02.735Z,100312.09
2022-08-12T07:56:31.294Z,100316.44
2022-08-12T07:58:59.279Z,100317.06
2022-08-12T08:01:26.329Z,100318.69
2022-08-12T08:04:17.940Z,100319.50
2022-08-12T08:06:46.356Z,100318.97
2022-08-12T08:09:15.763Z,100320.63
2022-08-12T08:12:01.241Z,100315.81
2022-08-12T08:14:29.190Z,100322.66
2022-08-12T08:16:57.592Z,100315.31
2022-08-12T08:19:25.511Z,100320.31
2022-08-12T08:21:54.955Z,100315.50
2022-08-12T08:24:24.625Z,100325.06
2022-08-12T08:26:52.949Z,100324.63
2022-08-12T08:29:24.032Z,100327.72
2022-08-12T08:31:54.096Z,100320.22
2022-08-12T08:34:27.593Z,100317.03
2022-08-12T08:37:10.696Z,100319.91
2022-08-12T08:39:42.316Z,100323.25
2022-08-12T08:42:27.683Z,100317.56
2022-08-12T08:44:58.888Z,100323.13
2022-08-12T08:47:25.970Z,100316.59
2022-08-12T08:49:52.658Z,100310.66
2022-08-12T08:52:35.208Z,100309.31
2022-08-12T08:55:14.007Z,100318.47
2022-08-12T08:57:44.757Z,100321.50
2022-08-12T09:00:16.950Z,100316.63
2022-08-12T09:02:49.446Z,100314.22
2022-08-12T09:05:26.068Z,100318.09
2022-08-12T09:08:12.142Z,100320.28
2022-08-12T09:10:39.374Z,100321.63
2022-08-12T09:14:10.707Z,100312.13
2022-08-12T09:16:20.653Z,100313.91
2022-08-12T09:21:54.851Z,100311.97
2022-08-12T09:24:21.625Z,100304.94
2022-08-12T09:26:49.157Z,100307.94
2022-08-12T09:29:20.400Z,100305.88
2022-08-12T09:32:09.533Z,100301.56
2022-08-12T09:34:43.098Z,100307.44
2022-08-12T09:37:20.099Z,100304.38
2022-08-12T09:40:03.190Z,100303.13
2022-08-12T09:43:15.498Z,100303.59
2022-08-12T09:46:11.783Z,100301.09
2022-08-12T09:48:34.910Z,100297.75
2022-08-12T09:51:16.708Z,100296.72
2022-08-12T09:54:08.858Z,100288.19
2022-08-12T09:56:59.209Z,100290.47
2022-08-12T10:00:15.137Z,100289.22
2022-08-12T10:02:45.237Z,100290.44
2022-08-12T10:05:00.795Z,100290.88
2022-08-12T10:07:39.652Z,100292.34
2022-08-12T10:10:22.365Z,100287.50
2022-08-12T10:13:12.903Z,100281.41
2022-08-12T10:16:01.481Z,100283.47
2022-08-12T10:18:32.326Z,100275.06
2022-08-12T10:20:59.371Z,100262.88
2022-08-12T10:23:38.419Z,100270.00
2022-08-12T10:26:37.378Z,100267.22
2022-08-12T10:30:37.105Z,100266.97
2022-08-12T10:32:45.278Z,100258.13
2022-08-12T10:35:08.402Z,100248.00
2022-08-12T10:38:38.004Z,100258.84
2022-08-12T10:40:28.716Z,100252.53
2022-08-12T10:43:16.733Z,100257.09
2022-08-12T10:45:43.892Z,100252.47
2022-08-12T10:48:21.401Z,100248.03
2022-08-12T10:51:00.975Z,100243.97
2022-08-12T10:53:44.219Z,100232.31
2022-08-12T10:56:17.761Z,100235.31
2022-08-12T10:58:46.900Z,100241.44
2022-08-12T11:04:14.374Z,100232.94
2022-08-12T11:04:25.627Z,100232.22
2022-08-12T11:07:05.820Z,100232.53
2022-08-12T11:09:41.592Z,100224.53
2022-08-12T11:12:55.791Z,100220.47
2022-08-12T11:15:18.856Z,100216.22
2022-08-12T11:17:53.524Z,100208.66
2022-08-12T11:20:21.002Z,100213.78
2022-08-12T11:22:59.043Z,100206.34
2022-08-12T11:25:56.044Z,100208.69
2022-08-12T11:28:14.043Z,100207.34
2022-08-12T11:30:41.349Z,100199.53
2022-08-12T11:33:11.969Z,100193.25
2022-08-12T11:35:44.289Z,100191.09
2022-08-12T11:38:13.629Z,100194.69
2022-08-12T11:40:47.122Z,100189.38
2022-08-12T11:43:18.999Z,100187.41
2022-08-12T11:45:52.824Z,100180.72
2022-08-12T11:48:26.642Z,100193.59
2022-08-12T11:50:57.059Z,100194.41
2022-08-12T11:53:58.829Z,100192.41
2022-08-12T11:56:11.507Z,100178.78
2022-08-12T12:01:58.392Z,100170.41
2022-08-12T12:02:01.568Z,100179.44
2022-08-12T12:04:11.992Z,100172.97
2022-08-12T12:06:38.642Z,100171.16
2022-08-12T12:09:11.892Z,100169.69
2022-08-12T12:11:39.099Z,100164.03
2022-08-12T12:14:15.905Z,100164.94
2022-08-12T12:16:49.927Z,100169.38
2022-08-12T12:19:20.348Z,100163.09
2022-08-12T12:21:49.705Z,100165.34
2022-08-12T12:24:21.159Z,100171.19
2022-08-12T12:26:59.722Z,100160.44
2022-08-12T12:30:18.138Z,100166.03
2022-08-12T12:32:28.776Z,100156.66
2022-08-12T12:35:14.474Z,100155.59
2022-08-12T12:38:12.585Z,100149.44
2022-08-12T12:40:50.604Z,100152.06
2022-08-12T12:43:28.890Z,100146.09
2022-08-12T12:46:05.725Z,100148.28
2022-08-12T12:48:35.208Z,100147.22
2022-08-12T12:51:48.360Z,100135.59
2022-08-12T12:54:07.071Z,100140.31
2022-08-12T12:56:40.558Z,100125.38
2022-08-12T12:59:54.450Z,100130.38
2022-08-12T13:01:55.287Z,100134.13
2022-08-12T13:04:22.376Z,100127.97
2022-08-12T13:06:52.402Z,100128.53
2022-08-12T13:09:22.225Z,100128.94
2022-08-12T13:11:53.442Z,100128.50
2022-08-12T13:14:28.249Z,100124.94
2022-08-12T13:17:02.480Z,100125.16
2022-08-12T13:19:38.662Z,100121.78
2022-08-12T13:22:20.359Z,100124.47
2022-08-12T13:24:55.557Z,100119.91
2022-08-12T13:27:34.898Z,100116.19
2022-08-12T13:30:11.505Z,100113.81
2022-08-12T13:32:57.700Z,100114.31
2022-08-12T13:35:33.417Z,100114.34
2022-08-12T13:38:14.008Z,100115.00
2022-08-12T13:40:40.705Z,100108.75
2022-08-12T13:43:07.622Z,100108.09
2022-08-12T13:45:36.862Z,100111.03
2022-08-12T13:48:07.568Z,100115.78
2022-08-12T13:50:36.566Z,100110.97
2022-08-12T13:53:23.185Z,100112.28
2022-08-12T13:55:59.342Z,100097.72
2022-08-12T13:58:26.569Z,100089.00
2022-08-12T14:00:55.406Z,100099.50
2022-08-12T14:03:28.302Z,100095.38
2022-08-12T14:06:15.362Z,100092.06
2022-08-12T14:08:43.274Z,100087.13
2022-08-12T14:11:12.356Z,100083.16
2022-08-12T14:14:03.349Z,100082.69
2022-08-12T14:16:37.754Z,100083.03
2022-08-12T14:19:22.344Z,100078.09
2022-08-12T14:21:59.091Z,100071.72
2022-08-12T14:24:30.780Z,100074.03
2022-08-12T14:26:58.688Z,100074.34
2022-08-12T14:29:56.430Z,100072.72
2022-08-12T14:32:17.825Z,100067.66
2022-08-12T14:34:46.950Z,100062.94
2022-08-12T14:37:54.882Z,100060.63
2022-08-12T14:40:01.243Z,100065.56
2022-08-12T14:42:28.378Z,100060.69
2022-08-12T14:45:01.608Z,100055.56
2022-08-12T14:47:29.217Z,100068.66
2022-08-12T14:50:58.199Z,100062.28
2022-08-12T14:58:31.802Z,100049.81
2022-08-12T15:01:21.354Z,100049.63
2022-08-12T15:03:56.769Z,100046.50
2022-08-12T15:06:43.540Z,100049.00
2022-08-12T15:09:15.904Z,100044.53
2022-08-12T15:11:54.925Z,100044.25
2022-08-12T15:14:25.461Z,100041.13
2022-08-12T15:16:53.162Z,100036.97
2022-08-12T15:20:16.762Z,100038.00
2022-08-12T15:22:37.407Z,100034.22
2022-08-12T15:24:56.749Z,100031.31
2022-08-12T15:28:03.387Z,100038.19
2022-08-12T15:30:10.430Z,100033.56
2022-08-12T15:32:37.644Z,100031.59
2022-08-12T15:35:12.040Z,100037.34
2022-08-12T15:38:11.259Z,100031.81
2022-08-12T15:40:29.748Z,100039.22
2022-08-12T15:42:59.747Z,100038.09
2022-08-12T15:45:32.075Z,100037.28
2022-08-12T15:48:16.846Z,100033.19
2022-08-12T15:50:47.086Z,100035.81
2022-08-12T15:53:38.202Z,100035.47
2022-08-12T15:56:07.883Z,100033.53
2022-08-12T15:58:41.423Z,100030.88
2022-08-12T16:01:15.172Z,100034.78
2022-08-12T16:04:00.515Z,100028.78
2022-08-12T16:06:50.914Z,100025.00
2022-08-12T16:09:21.856Z,100034.63
2022-08-12T16:12:07.900Z,100022.38
2022-08-12T16:14:38.806Z,100024.91
2022-08-12T16:17:05.500Z,100020.16
2022-08-12T16:20:04.997Z,100023.13
2022-08-12T16:22:24.532Z,100020.00
2022-08-12T16:24:54.107Z,100013.97
2022-08-12T16:27:23.798Z,100022.03
2022-08-12T16:29:57.226Z,100014.22
2022-08-12T16:32:31.754Z,100017.34
2022-08-12T16:35:01.350Z,100012.06
2022-08-12T16:38:04.668Z,100010.25
2022-08-12T16:40:16.132Z,100004.13
2022-08-12T16:42:54.291Z,99996.94
2022-08-12T16:46:23.461Z,99994.59
2022-08-12T16:48:34.696Z,100000.63
2022-08-12T16:51:12.631Z,100008.19
2022-08-12T16:53:44.315Z,99998.94
2022-08-12T16:56:14.403Z,99999.84
2022-08-12T16:58:41.996Z,100001.72
2022-08-12T17:01:13.870Z,100008.94
2022-08-12T17:03:59.730Z,99998.44
2022-08-12T17:06:28.094Z,99993.63
2022-08-12T17:09:03.115Z,100002.84
2022-08-12T17:11:33.381Z,100004.06
2022-08-12T17:14:01.681Z,100003.91
2022-08-12T17:16:29.932Z,100005.59
2022-08-12T17:19:03.023Z,100004.56
2022-08-12T17:21:41.591Z,100002.91
2022-08-12T17:24:21.423Z,99995.75
2022-08-12T17:26:53.928Z,100000.34
2022-08-12T17:33:02.979Z,99985.38
2022-08-12T17:35:36.765Z,99988.88
2022-08-12T17:38:06.625Z,99985.53
2022-08-12T17:40:36.887Z,99988.53
2022-08-12T17:43:56.520Z,99990.44
2022-08-12T17:45:58.972Z,99994.75
2022-08-12T17:48:34.387Z,99991.47
2022-08-12T17:51:15.339Z,99984.91
2022-08-12T17:54:10.514Z,99990.63
2022-08-12T17:56:31.819Z,99989.81
2022-08-12T17:59:00.341Z,99991.72
2022-08-12T18:01:28.971Z,99997.47
2022-08-12T18:04:20.807Z,99996.00
2022-08-12T18:06:50.300Z,100000.88
2022-08-12T18:09:18.036Z,99996.47
2022-08-12T18:12:07.781Z,100005.13
2022-08-12T18:14:37.327Z,100005.31
2022-08-12T18:17:08.537Z,100007.41
2022-08-12T18:20:04.832Z,100012.84
2022-08-12T18:22:30.697Z,100018.25
2022-08-12T18:25:06.297Z,100019.47
2022-08-12T18:27:43.851Z,100021.09
2022-08-12T18:30:16.347Z,100018.28
2022-08-12T18:32:59.525Z,100018.22
2022-08-12T18:35:47.792Z,100021.09
2022-08-12T18:38:20.859Z,100025.81
2022-08-12T18:41:09.558Z,100028.69
2022-08-12T18:43:58.774Z,100027.75
2022-08-12T18:46:54.389Z,100026.66
2022-08-12T18:49:38.036Z,100031.31
2022-08-12T18:52:08.094Z,100024.94
2022-08-12T18:54:47.883Z,100030.47
2022-08-12T18:58:07.006Z,100020.34
2022-08-12T19:00:15.988Z,100026.69
2022-08-12T19:02:44.766Z,100026.38
2022-08-12T19:05:17.685Z,100029.38
2022-08-12T19:08:01.637Z,100034.22
2022-08-12T19:10:30.390Z,100034.03
2022-08-12T19:13:20.982Z,100035.72
2022-08-12T19:15:49.984Z,100037.66
2022-08-12T19:18:17.644Z,100035.56
2022-08-12T19:20:50.669Z,100045.41
2022-08-12T19:23:21.224Z,100039.13
2022-08-12T19:25:59.530Z,100051.66
2022-08-12T19:28:30.326Z,100041.41
2022-08-12T19:31:56.633Z,100043.72
2022-08-12T19:38:02.738Z,100045.72
2022-08-12T19:40:31.452Z,100042.38
2022-08-12T19:43:17.319Z,100049.41
2022-08-12T19:45:50.532Z,100045.41
2022-08-12T19:48:23.164Z,100046.19
2022-08-12T19:50:53.503Z,100056.13
2022-08-12T19:53:24.279Z,100055.03
2022-08-12T19:55:53.993Z,100051.47
2022-08-12T19:58:22.259Z,100054.31
2022-08-12T20:00:53.222Z,100050.97
2022-08-12T20:03:38.767Z,100054.00
2022-08-12T20:06:13.696Z,100058.91
2022-08-12T20:08:49.218Z,100053.63
2022-08-12T20:12:10.250Z,100058.75
2022-08-12T20:14:19.276Z,100059.91
2022-08-12T20:16:56.373Z,100064.66
2022-08-12T20:19:53.076Z,100072.03
2022-08-12T20:22:23.948Z,100059.69
2022-08-12T20:24:54.904Z,100063.81
2022-08-12T20:27:29.044Z,100060.16
2022-08-12T20:30:11.520Z,100067.38
2022-08-12T20:33:00.573Z,100067.44
2022-08-12T20:35:38.947Z,100066.97
2022-08-12T20:38:26.556Z,100072.28
2022-08-12T20:40:54.865Z,100065.13
2022-08-12T20:43:24.129Z,100067.75
2022-08-12T20:45:57.242Z,100066.84
2022-08-12T20:48:25.290Z,100065.72
2022-08-12T20:50:54.032Z,100064.44
2022-08-12T20:53:27.776Z,100068.53
2022-08-12T20:56:31.152Z,100074.66
2022-08-12T20:59:01.113Z,100075.50
2022-08-12T21:01:45.908Z,100070.47
2022-08-12T21:04:33.029Z,100064.44
2022-08-12T21:07:04.578Z,100068.13
2022-08-12T21:09:42.467Z,100065.16
2022-08-12T21:12:27.346Z,100067.03
2022-08-12T21:15:04.486Z,100064.53
2022-08-12T21:18:00.700Z,100067.41
2022-08-12T21:20:32.492Z,100065.91
2022-08-12T21:22:59.039Z,100070.00
2022-08-12T21:25:44.179Z,100073.94
2022-08-12T21:28:15.181Z,100069.91
2022-08-12T21:31:10.462Z,100074.47
2022-08-12T21:33:31.610Z,100076.53
2022-08-12T21:36:01.014Z,100077.72
2022-08-12T21:38:34.932Z,100072.69
2022-08-12T21:41:07.002Z,100069.50
2022-08-12T21:43:44.785Z,100080.69
2022-08-12T21:46:34.966Z,100071.28
2022-08-12T21:49:05.134Z,100076.03
2022-08-12T21:51:49.000Z,100080.09
2022-08-12T21:54:23.174Z,100079.47
2022-08-12T21:56:53.670Z,100079.66
2022-08-12T21:59:21.791Z,100074.25
2022-08-12T22:01:49.771Z,100075.09
2022-08-12T22:04:36.302Z,100078.63
2022-08-12T22:07:04.509Z,100082.16
2022-08-12T22:09:43.282Z,100082.16
2022-08-12T22:12:28.886Z,100085.69
2022-08-12T22:14:55.457Z,100085.03
2022-08-12T22:17:49.420Z,100085.91
2022-08-12T22:20:17.445Z,100085.22
2022-08-12T22:22:56.660Z,100083.53
2022-08-12T22:25:27.724Z,100088.91
2022-08-12T22:28:13.093Z,100092.81
2022-08-12T22:31:06.797Z,100092.16
2022-08-12T22:33:54.407Z,100088.63
2022-08-12T22:36:28.799Z,100093.34
2022-08-12T22:38:59.027Z,100093.75
2022-08-12T22:41:45.143Z,100092.03
2022-08-12T22:44:30.986Z,100086.38
2022-08-12T22:47:03.407Z,100080.31
2022-08-12T22:49:37.375Z,100087.09
2022-08-12T22:52:18.654Z,100083.72
2022-08-12T22:55:03.300Z,100084.09
2022-08-12T22:57:49.413Z,100088.19
2022-08-12T23:00:27.074Z,100084.81
2022-08-12T23:02:56.920Z,100088.03
2022-08-12T23:05:57.058Z,100081.38
2022-08-12T23:08:13.657Z,100087.28
2022-08-12T23:10:41.146Z,100084.13
2022-08-12T23:13:30.186Z,100082.81
2022-08-12T23:16:10.888Z,100078.59
2022-08-12T23:19:01.594Z,100076.25
2022-08-12T23:22:05.559Z,100085.56
2022-08-12T23:24:35.122Z,100091.97
2022-08-12T23:27:21.923Z,100085.72
2022-08-12T23:30:05.898Z,100075.97
2022-08-12T23:32:37.011Z,100076.97
2022-08-12T23:35:06.457Z,100077.13
2022-08-12T23:37:46.630Z,100078.13
2022-08-12T23:40:17.869Z,100083.50
2022-08-12T23:42:45.283Z,100080.19
2022-08-12T23:45:20.165Z,100074.97
2022-08-12T23:48:00.014Z,100078.84
2022-08-12T23:50:34.049Z,100080.69
2022-08-12T23:53:05.805Z,100075.69
2022-08-12T23:55:40.797Z,100080.41
2022-08-12T23:58:20.848Z,100080.41
